createdAt,value
2018-10-02T00:27:06.218Z,1017.41
2018-10-02T00:28:32.937Z,1017.38
2018-10-02T05:00:42.409Z,1016.89
2018-10-02T05:02:09.078Z,1016.83
2018-10-02T05:03:35.911Z,1016.87
2018-10-02T05:05:03.263Z,1016.87
2018-10-02T05:06:30.513Z,1016.90
2018-10-02T05:07:57.797Z,1016.90
2018-10-02T05:09:25.115Z,1016.93
2018-10-02T05:10:52.432Z,1016.93
2018-10-02T05:12:19.762Z,1016.97
2018-10-02T05:13:47.136Z,1016.99
2018-10-02T05:26:23.244Z,1016.99
2018-10-02T05:27:49.984Z,1017.00
2018-10-02T05:29:16.906Z,1017.01
2018-10-02T05:30:44.135Z,1016.99
2018-10-02T05:32:11.382Z,1016.95
2018-10-02T05:33:38.576Z,1016.94
2018-10-02T05:35:06.023Z,1016.95
2018-10-02T05:36:33.324Z,1016.97
2018-10-02T05:38:00.378Z,1016.96
2018-10-02T05:39:56.730Z,1016.93
2018-10-02T05:54:28.771Z,1016.74
2018-10-02T05:55:55.059Z,1016.69
2018-10-02T05:57:41.586Z,1016.70
2018-10-02T05:59:08.393Z,1016.70
2018-10-02T06:10:55.878Z,1016.65
2018-10-02T06:12:22.597Z,1016.66
2018-10-02T06:13:49.918Z,1016.68
2018-10-02T06:15:17.235Z,1016.67
2018-10-02T06:16:44.239Z,1016.67
2018-10-02T06:18:11.364Z,1016.65
2018-10-02T06:19:38.674Z,1016.64
2018-10-02T06:21:05.931Z,1016.68
2018-10-02T06:22:33.240Z,1016.73
2018-10-02T06:29:20.603Z,1016.68
2018-10-02T06:30:47.261Z,1016.65
2018-10-02T06:32:14.393Z,1016.59
2018-10-02T06:33:41.695Z,1016.58
2018-10-02T06:35:08.790Z,1016.57
2018-10-02T06:36:36.088Z,1016.61
2018-10-02T06:38:03.447Z,1016.58
2018-10-02T06:39:30.580Z,1016.58
2018-10-02T06:40:57.934Z,1016.60
2018-10-02T06:42:25.343Z,1016.61
2018-10-02T06:43:52.625Z,1016.66
2018-10-02T06:45:19.707Z,1016.63
2018-10-02T06:46:47.099Z,1016.63
2018-10-02T06:48:14.196Z,1016.64
2018-10-02T06:49:41.501Z,1016.64
2018-10-02T06:51:08.950Z,1016.61
2018-10-02T06:52:36.131Z,1016.60
2018-10-02T06:54:02.722Z,1016.59
2018-10-02T06:55:29.970Z,1016.57
2018-10-02T06:56:57.446Z,1016.55
2018-10-02T06:58:24.656Z,1016.51
2018-10-02T06:59:51.908Z,1016.50
2018-10-02T07:01:19.198Z,1016.47
2018-10-02T07:02:46.521Z,1016.45
2018-10-02T07:04:13.778Z,1016.42
2018-10-02T07:05:40.976Z,1016.40
2018-10-02T07:07:08.347Z,1016.39
2018-10-02T07:08:35.685Z,1016.42
2018-10-02T07:10:03.003Z,1016.43
2018-10-02T07:11:30.322Z,1016.40
2018-10-02T07:12:57.838Z,1016.42
2018-10-02T07:14:25.025Z,1016.39
2018-10-02T07:15:52.238Z,1016.37
2018-10-02T07:17:19.570Z,1016.34
2018-10-02T07:18:46.856Z,1016.30
2018-10-02T07:20:13.877Z,1016.21
2018-10-02T07:21:41.059Z,1016.19
2018-10-02T07:23:08.280Z,1016.17
2018-10-02T07:24:35.599Z,1016.13
2018-10-02T07:26:02.521Z,1016.11
2018-10-02T07:27:30.130Z,1016.05
2018-10-02T07:28:57.368Z,1016.07
2018-10-02T07:30:24.527Z,1016.03
2018-10-02T07:31:51.824Z,1016.06
2018-10-02T07:33:19.176Z,1016.10
2018-10-02T07:34:46.428Z,1016.12
2018-10-02T07:36:13.741Z,1016.11
2018-10-02T07:37:40.996Z,1016.15
2018-10-02T07:39:08.311Z,1016.15
2018-10-02T07:40:35.545Z,1016.16
2018-10-02T07:42:03.022Z,1016.17
2018-10-02T07:43:30.346Z,1016.16
2018-10-02T07:44:57.624Z,1016.15
2018-10-02T07:46:25.048Z,1016.11
2018-10-02T07:47:52.290Z,1016.16
2018-10-02T07:49:19.558Z,1016.13
2018-10-02T07:50:46.929Z,1016.14
2018-10-02T07:52:14.226Z,1016.15
2018-10-02T07:53:41.477Z,1016.09
2018-10-02T07:55:08.450Z,1016.07
2018-10-02T07:56:35.846Z,1016.04
2018-10-02T07:58:03.165Z,1015.99
2018-10-02T08:06:27.323Z,1016.07
2018-10-02T08:07:53.763Z,1016.06
2018-10-02T08:09:20.609Z,1016.06
2018-10-02T08:10:47.902Z,1016.03
2018-10-02T08:12:15.359Z,1016.01
2018-10-02T08:13:42.541Z,1016.03
2018-10-02T08:15:09.646Z,1016.05
2018-10-02T08:16:36.928Z,1016.07
2018-10-02T08:18:04.365Z,1016.03
2018-10-02T08:19:31.559Z,1016.01
2018-10-02T08:20:58.844Z,1015.98
2018-10-02T08:22:26.134Z,1015.95
2018-10-02T08:23:53.297Z,1015.96
2018-10-02T08:25:20.464Z,1015.91
2018-10-02T08:26:47.609Z,1015.91
2018-10-02T08:28:14.740Z,1015.85
2018-10-02T08:29:42.104Z,1015.84
2018-10-02T08:31:09.155Z,1015.86
2018-10-02T08:32:36.618Z,1015.83
2018-10-02T08:52:47.985Z,1015.50
2018-10-02T08:54:14.377Z,1015.49
2018-10-02T08:55:41.393Z,1015.49
2018-10-02T08:57:08.748Z,1015.46
2018-10-02T08:58:35.895Z,1015.47
2018-10-02T09:00:03.045Z,1015.48
2018-10-02T10:03:12.252Z,1013.90
2018-10-02T10:04:38.732Z,1013.89
2018-10-02T10:06:05.583Z,1013.83
2018-10-02T10:07:32.512Z,1013.84
2018-10-02T10:08:59.803Z,1013.76
2018-10-02T10:10:27.036Z,1013.72
2018-10-02T10:11:54.407Z,1013.69
2018-10-02T10:16:06.505Z,1013.69
2018-10-02T10:17:33.323Z,1013.59
2018-10-02T10:19:48.891Z,1013.66
2018-10-02T10:23:21.472Z,1013.60
2018-10-02T10:24:47.981Z,1013.57
2018-10-02T18:47:35.678Z,1009.77
2018-10-02T18:49:02.335Z,1009.74
2018-10-02T19:06:41.224Z,1009.85
2018-10-02T19:08:04.702Z,1009.91
2018-10-02T19:09:31.375Z,1009.91
2018-10-02T19:10:58.248Z,1009.92
2018-10-02T19:12:25.673Z,1009.96
2018-10-02T19:25:40.352Z,1009.91
2018-10-02T19:27:06.882Z,1009.91
2018-10-02T19:28:33.737Z,1009.90
2018-10-02T19:30:01.026Z,1009.93
2018-10-02T19:31:28.392Z,1009.91
2018-10-02T19:34:22.700Z,1009.93
2018-10-02T19:35:49.305Z,1009.93
2018-10-02T19:37:35.903Z,1009.95
2018-10-02T19:47:55.963Z,1010.01
2018-10-02T19:49:22.616Z,1010.03
2018-10-02T19:50:49.535Z,1010.03
2018-10-02T19:52:16.428Z,1010.02
2018-10-02T19:53:43.613Z,1010.00
2018-10-02T19:55:11.074Z,1009.95
2018-10-02T19:56:38.336Z,1010.00
2018-10-02T19:58:05.596Z,1010.05
2018-10-02T19:59:32.949Z,1010.04
2018-10-02T20:21:59.745Z,1010.07
2018-10-02T20:23:26.392Z,1010.04
2018-10-02T20:24:53.297Z,1010.00
2018-10-02T20:26:20.367Z,1009.95
2018-10-02T20:27:47.699Z,1009.96
2018-10-02T20:29:15.011Z,1009.98
2018-10-02T20:30:42.382Z,1009.92
2018-10-02T20:32:09.314Z,1009.88
2018-10-02T20:33:36.482Z,1009.88
2018-10-02T20:35:03.914Z,1009.85
2018-10-02T20:36:31.256Z,1009.82
2018-10-02T20:37:58.440Z,1009.84
2018-10-02T20:39:25.623Z,1009.89
2018-10-02T20:40:52.937Z,1009.83
2018-10-02T20:42:19.793Z,1009.78
2018-10-02T20:43:46.958Z,1009.86
2018-10-02T20:45:14.395Z,1009.84
2018-10-02T20:46:41.048Z,1009.88
2018-10-02T20:48:08.376Z,1009.88
2018-10-02T20:49:35.756Z,1009.89
2018-10-02T20:51:02.655Z,1009.89
2018-10-02T20:52:29.888Z,1009.90
2018-10-02T20:53:57.408Z,1009.94
2018-10-02T20:55:24.640Z,1009.95
2018-10-02T20:56:51.911Z,1010.01
2018-10-02T20:58:19.151Z,1009.95
2018-10-02T20:59:46.566Z,1009.90
2018-10-02T21:01:13.416Z,1009.99
2018-10-02T21:02:40.774Z,1009.96
2018-10-02T21:04:07.845Z,1009.93
2018-10-02T21:05:35.255Z,1009.94
2018-10-02T21:07:02.573Z,1009.89
2018-10-02T21:08:29.916Z,1009.89
2018-10-02T21:09:57.339Z,1009.87
2018-10-02T21:11:24.410Z,1009.88
2018-10-02T21:12:51.334Z,1009.96
2018-10-02T21:14:18.633Z,1009.96
2018-10-02T21:15:46.159Z,1010.01
2018-10-02T21:17:12.952Z,1010.04
2018-10-02T21:49:40.659Z,1009.78
2018-10-02T21:51:07.292Z,1009.68
2018-10-02T21:52:34.579Z,1009.69
2018-10-02T21:54:01.732Z,1009.66
2018-10-02T21:55:28.934Z,1009.69
2018-10-02T21:56:56.138Z,1009.64
2018-10-02T21:58:23.161Z,1009.69
2018-10-02T21:59:50.442Z,1009.64
2018-10-02T22:01:17.658Z,1009.66
2018-10-02T22:02:44.739Z,1009.66
2018-10-02T22:04:11.718Z,1009.69
2018-10-02T22:05:39.246Z,1009.66
2018-10-02T22:07:06.575Z,1009.67
2018-10-02T22:08:33.833Z,1009.65
2018-10-02T22:10:01.173Z,1009.67
2018-10-02T22:11:28.474Z,1009.64
2018-10-02T22:12:55.735Z,1009.65
2018-10-02T22:14:22.826Z,1009.67
2018-10-02T22:15:50.096Z,1009.60
2018-10-02T22:17:17.024Z,1009.62
2018-10-02T22:18:44.494Z,1009.61
2018-10-02T22:20:12.542Z,1009.63
2018-10-02T22:21:38.914Z,1009.60
2018-10-02T22:23:06.396Z,1009.66
2018-10-02T22:24:33.591Z,1009.65
2018-10-02T22:26:01.005Z,1009.70
2018-10-02T22:27:25.297Z,1009.73
2018-10-02T22:28:55.587Z,1009.68
2018-10-02T22:30:22.717Z,1009.65
2018-10-02T22:31:49.581Z,1009.64
2018-10-02T22:33:16.697Z,1009.63
2018-10-02T22:34:43.706Z,1009.61
2018-10-02T22:36:10.524Z,1009.68
2018-10-02T22:37:37.815Z,1009.77
2018-10-02T22:39:04.674Z,1009.75
2018-10-02T22:40:31.839Z,1009.77
2018-10-02T22:41:59.230Z,1009.79
2018-10-02T22:43:26.584Z,1009.76
2018-10-02T22:44:53.958Z,1009.72
2018-10-02T22:46:20.720Z,1009.71
2018-10-02T22:47:47.731Z,1009.71
2018-10-02T22:49:14.995Z,1009.68
2018-10-02T22:50:42.248Z,1009.69
2018-10-02T22:52:09.285Z,1009.61
2018-10-02T22:53:36.753Z,1009.65
2018-10-02T22:55:03.943Z,1009.65
2018-10-02T22:56:31.254Z,1009.66
2018-10-02T22:57:58.489Z,1009.69
2018-10-02T22:59:25.946Z,1009.67
2018-10-02T23:00:53.141Z,1009.64
2018-10-02T23:02:19.558Z,1009.66
2018-10-02T23:03:46.834Z,1009.71
2018-10-02T23:05:14.246Z,1009.69
2018-10-02T23:06:41.244Z,1009.74
2018-10-02T23:08:08.451Z,1009.69
2018-10-02T23:09:35.858Z,1009.66
2018-10-02T23:11:03.184Z,1009.64
2018-10-02T23:12:30.455Z,1009.57
2018-10-02T23:13:57.076Z,1009.51
2018-10-02T23:15:24.409Z,1009.51
2018-10-02T23:16:51.159Z,1009.48
2018-10-02T23:18:18.150Z,1009.54
2018-10-02T23:19:45.357Z,1009.56
2018-10-02T23:21:12.192Z,1009.57
2018-10-02T23:30:14.829Z,1009.73
2018-10-02T23:31:41.345Z,1009.70
2018-10-02T23:33:08.437Z,1009.71
2018-10-02T23:34:35.385Z,1009.77
2018-10-02T23:36:02.808Z,1009.77
2018-10-02T23:37:30.034Z,1009.78
2018-10-02T23:38:57.191Z,1009.80
2018-10-02T23:40:24.515Z,1009.74
2018-10-02T23:41:51.679Z,1009.67
2018-10-02T23:43:18.877Z,1009.64
2018-10-02T23:44:45.962Z,1009.61
2018-10-02T23:46:13.088Z,1009.61
2018-10-02T23:47:49.749Z,1009.57
